sensor_id;sensor_type;location;lat;lon;timestamp;P1;durP1;ratioP1;P2;durP2;ratioP2
17524;SDS011;40431;52.198;9.902;2023-04-25T00:01:20;7.33;;;5.40;;
17524;SDS011;40431;52.198;9.902;2023-04-25T00:03:46;7.03;;;5.87;;
17524;SDS011;40431;52.198;9.902;2023-04-25T00:06:13;5.57;;;5.07;;
17524;SDS011;40431;52.198;9.902;2023-04-25T00:08:40;14.57;;;6.47;;
17524;SDS011;40431;52.198;9.902;2023-04-25T00:11:08;7.33;;;5.50;;
17524;SDS011;40431;52.198;9.902;2023-04-25T00:13:34;7.73;;;6.73;;
17524;SDS011;40431;52.198;9.902;2023-04-25T00:16:00;7.67;;;5.87;;
17524;SDS011;40431;52.198;9.902;2023-04-25T00:18:28;8.50;;;5.53;;
17524;SDS011;40431;52.198;9.902;2023-04-25T00:20:54;13.90;;;6.20;;
17524;SDS011;40431;52.198;9.902;2023-04-25T00:23:21;6.77;;;6.03;;
17524;SDS011;40431;52.198;9.902;2023-04-25T00:25:49;8.70;;;6.07;;
17524;SDS011;40431;52.198;9.902;2023-04-25T00:28:17;9.93;;;6.60;;
17524;SDS011;40431;52.198;9.902;2023-04-25T00:30:43;6.87;;;5.83;;
17524;SDS011;40431;52.198;9.902;2023-04-25T00:33:10;7.77;;;6.53;;
17524;SDS011;40431;52.198;9.902;2023-04-25T00:35:36;11.03;;;6.77;;
17524;SDS011;40431;52.198;9.902;2023-04-25T00:38:02;15.10;;;7.30;;
17524;SDS011;40431;52.198;9.902;2023-04-25T00:40:29;7.73;;;6.37;;
17524;SDS011;40431;52.198;9.902;2023-04-25T00:42:55;12.87;;;6.60;;
17524;SDS011;40431;52.198;9.902;2023-04-25T00:45:23;10.70;;;7.40;;
17524;SDS011;40431;52.198;9.902;2023-04-25T00:47:54;8.67;;;6.63;;
17524;SDS011;40431;52.198;9.902;2023-04-25T00:50:20;10.23;;;7.00;;
17524;SDS011;40431;52.198;9.902;2023-04-25T00:52:47;8.13;;;7.00;;
17524;SDS011;40431;52.198;9.902;2023-04-25T00:55:14;8.73;;;7.93;;
17524;SDS011;40431;52.198;9.902;2023-04-25T00:57:40;9.37;;;8.03;;
17524;SDS011;40431;52.198;9.902;2023-04-25T01:00:09;11.40;;;7.20;;
17524;SDS011;40431;52.198;9.902;2023-04-25T01:02:37;8.93;;;7.37;;
17524;SDS011;40431;52.198;9.902;2023-04-25T01:05:04;11.23;;;7.60;;
17524;SDS011;40431;52.198;9.902;2023-04-25T01:07:31;10.40;;;8.17;;
17524;SDS011;40431;52.198;9.902;2023-04-25T01:09:57;13.57;;;7.40;;
17524;SDS011;40431;52.198;9.902;2023-04-25T01:12:24;8.97;;;7.83;;
17524;SDS011;40431;52.198;9.902;2023-04-25T01:14:50;10.80;;;7.67;;
17524;SDS011;40431;52.198;9.902;2023-04-25T01:17:17;9.70;;;8.17;;
17524;SDS011;40431;52.198;9.902;2023-04-25T01:19:45;8.87;;;7.93;;
17524;SDS011;40431;52.198;9.902;2023-04-25T01:22:14;8.50;;;7.60;;
17524;SDS011;40431;52.198;9.902;2023-04-25T01:24:41;10.23;;;8.07;;
17524;SDS011;40431;52.198;9.902;2023-04-25T01:27:09;13.47;;;8.07;;
17524;SDS011;40431;52.198;9.902;2023-04-25T01:29:35;12.37;;;8.73;;
17524;SDS011;40431;52.198;9.902;2023-04-25T01:32:02;9.53;;;8.57;;
17524;SDS011;40431;52.198;9.902;2023-04-25T01:34:29;9.90;;;7.83;;
17524;SDS011;40431;52.198;9.902;2023-04-25T01:36:56;9.93;;;7.90;;
17524;SDS011;40431;52.198;9.902;2023-04-25T01:39:24;10.23;;;8.13;;
17524;SDS011;40431;52.198;9.902;2023-04-25T01:41:50;9.23;;;8.10;;
17524;SDS011;40431;52.198;9.902;2023-04-25T01:44:17;9.33;;;8.37;;
17524;SDS011;40431;52.198;9.902;2023-04-25T01:46:43;9.67;;;8.67;;
17524;SDS011;40431;52.198;9.902;2023-04-25T01:49:10;9.13;;;8.37;;
17524;SDS011;40431;52.198;9.902;2023-04-25T01:51:36;9.03;;;7.90;;
17524;SDS011;40431;52.198;9.902;2023-04-25T01:54:03;9.97;;;8.60;;
17524;SDS011;40431;52.198;9.902;2023-04-25T01:56:31;10.30;;;9.40;;
17524;SDS011;40431;52.198;9.902;2023-04-25T01:58:58;9.87;;;8.77;;
17524;SDS011;40431;52.198;9.902;2023-04-25T02:01:25;10.27;;;8.63;;
17524;SDS011;40431;52.198;9.902;2023-04-25T02:03:51;10.97;;;9.87;;
17524;SDS011;40431;52.198;9.902;2023-04-25T02:06:18;12.20;;;8.70;;
17524;SDS011;40431;52.198;9.902;2023-04-25T02:08:44;14.87;;;10.37;;
17524;SDS011;40431;52.198;9.902;2023-04-25T02:11:10;12.27;;;9.83;;
17524;SDS011;40431;52.198;9.902;2023-04-25T02:13:38;14.00;;;10.37;;
17524;SDS011;40431;52.198;9.902;2023-04-25T02:16:05;13.67;;;9.93;;
17524;SDS011;40431;52.198;9.902;2023-04-25T02:18:31;10.80;;;9.80;;
17524;SDS011;40431;52.198;9.902;2023-04-25T02:20:58;12.03;;;9.30;;
17524;SDS011;40431;52.198;9.902;2023-04-25T02:23:26;9.67;;;8.70;;
17524;SDS011;40431;52.198;9.902;2023-04-25T02:25:52;10.50;;;8.97;;
17524;SDS011;40431;52.198;9.902;2023-04-25T02:28:20;11.13;;;9.10;;
17524;SDS011;40431;52.198;9.902;2023-04-25T02:30:48;10.70;;;9.60;;
17524;SDS011;40431;52.198;9.902;2023-04-25T02:33:14;11.73;;;9.37;;
17524;SDS011;40431;52.198;9.902;2023-04-25T02:35:41;9.73;;;8.87;;
17524;SDS011;40431;52.198;9.902;2023-04-25T02:38:08;15.10;;;9.37;;
17524;SDS011;40431;52.198;9.902;2023-04-25T02:40:34;12.70;;;9.77;;
17524;SDS011;40431;52.198;9.902;2023-04-25T02:43:01;9.97;;;9.07;;
17524;SDS011;40431;52.198;9.902;2023-04-25T02:45:27;9.87;;;8.87;;
17524;SDS011;40431;52.198;9.902;2023-04-25T02:47:55;9.53;;;8.47;;
17524;SDS011;40431;52.198;9.902;2023-04-25T02:50:21;9.73;;;8.77;;
17524;SDS011;40431;52.198;9.902;2023-04-25T02:52:48;10.33;;;9.33;;
17524;SDS011;40431;52.198;9.902;2023-04-25T02:55:14;9.50;;;8.10;;
17524;SDS011;40431;52.198;9.902;2023-04-25T02:57:40;9.40;;;8.60;;
17524;SDS011;40431;52.198;9.902;2023-04-25T03:00:07;12.27;;;8.53;;
17524;SDS011;40431;52.198;9.902;2023-04-25T03:02:36;10.10;;;8.90;;
17524;SDS011;40431;52.198;9.902;2023-04-25T03:05:04;10.23;;;8.83;;
17524;SDS011;40431;52.198;9.902;2023-04-25T03:07:32;9.67;;;6.97;;
17524;SDS011;40431;52.198;9.902;2023-04-25T03:09:58;8.27;;;6.13;;
17524;SDS011;40431;52.198;9.902;2023-04-25T03:12:25;10.87;;;7.13;;
17524;SDS011;40431;52.198;9.902;2023-04-25T03:14:51;13.97;;;10.50;;
17524;SDS011;40431;52.198;9.902;2023-04-25T03:17:17;17.90;;;13.83;;
17524;SDS011;40431;52.198;9.902;2023-04-25T03:19:44;8.70;;;7.47;;
17524;SDS011;40431;52.198;9.902;2023-04-25T03:22:11;12.07;;;8.47;;
17524;SDS011;40431;52.198;9.902;2023-04-25T03:24:38;11.20;;;8.43;;
17524;SDS011;40431;52.198;9.902;2023-04-25T03:27:05;13.17;;;8.57;;
17524;SDS011;40431;52.198;9.902;2023-04-25T03:29:31;9.33;;;6.50;;
17524;SDS011;40431;52.198;9.902;2023-04-25T03:31:57;12.33;;;8.23;;
17524;SDS011;40431;52.198;9.902;2023-04-25T03:34:24;19.33;;;8.03;;
17524;SDS011;40431;52.198;9.902;2023-04-25T03:36:50;12.73;;;7.50;;
17524;SDS011;40431;52.198;9.902;2023-04-25T03:39:18;11.40;;;6.70;;
17524;SDS011;40431;52.198;9.902;2023-04-25T03:41:45;8.23;;;5.83;;
17524;SDS011;40431;52.198;9.902;2023-04-25T03:44:12;11.17;;;6.30;;
17524;SDS011;40431;52.198;9.902;2023-04-25T03:46:38;13.97;;;8.83;;
17524;SDS011;40431;52.198;9.902;2023-04-25T03:49:05;9.13;;;6.00;;
17524;SDS011;40431;52.198;9.902;2023-04-25T03:51:31;10.63;;;6.53;;
17524;SDS011;40431;52.198;9.902;2023-04-25T03:53:58;9.60;;;6.90;;
17524;SDS011;40431;52.198;9.902;2023-04-25T03:56:25;12.77;;;6.10;;
17524;SDS011;40431;52.198;9.902;2023-04-25T03:58:52;10.63;;;5.90;;
17524;SDS011;40431;52.198;9.902;2023-04-25T04:01:19;6.80;;;5.57;;
17524;SDS011;40431;52.198;9.902;2023-04-25T04:03:45;13.70;;;6.80;;
17524;SDS011;40431;52.198;9.902;2023-04-25T04:06:12;12.70;;;6.33;;
17524;SDS011;40431;52.198;9.902;2023-04-25T04:08:39;14.50;;;5.93;;
17524;SDS011;40431;52.198;9.902;2023-04-25T04:11:06;15.23;;;6.47;;
17524;SDS011;40431;52.198;9.902;2023-04-25T04:13:34;8.90;;;6.07;;
17524;SDS011;40431;52.198;9.902;2023-04-25T04:16:00;11.87;;;6.93;;
17524;SDS011;40431;52.198;9.902;2023-04-25T04:18:27;12.70;;;6.90;;
17524;SDS011;40431;52.198;9.902;2023-04-25T04:20:53;12.27;;;6.67;;
17524;SDS011;40431;52.198;9.902;2023-04-25T04:23:19;14.13;;;6.57;;
17524;SDS011;40431;52.198;9.902;2023-04-25T04:25:47;16.73;;;7.37;;
17524;SDS011;40431;52.198;9.902;2023-04-25T04:28:14;15.23;;;7.30;;
17524;SDS011;40431;52.198;9.902;2023-04-25T04:30:42;17.43;;;6.80;;
17524;SDS011;40431;52.198;9.902;2023-04-25T04:33:12;12.03;;;6.50;;
17524;SDS011;40431;52.198;9.902;2023-04-25T04:35:38;12.00;;;5.90;;
17524;SDS011;40431;52.198;9.902;2023-04-25T04:38:04;10.27;;;7.00;;
17524;SDS011;40431;52.198;9.902;2023-04-25T04:40:31;14.13;;;7.23;;
17524;SDS011;40431;52.198;9.902;2023-04-25T04:42:57;11.43;;;6.50;;
17524;SDS011;40431;52.198;9.902;2023-04-25T04:45:24;14.30;;;6.70;;
17524;SDS011;40431;52.198;9.902;2023-04-25T04:47:51;15.97;;;6.20;;
17524;SDS011;40431;52.198;9.902;2023-04-25T04:50:20;12.43;;;5.83;;
17524;SDS011;40431;52.198;9.902;2023-04-25T04:52:46;12.80;;;6.53;;
17524;SDS011;40431;52.198;9.902;2023-04-25T04:55:13;14.83;;;6.23;;
17524;SDS011;40431;52.198;9.902;2023-04-25T04:57:39;13.30;;;6.20;;
17524;SDS011;40431;52.198;9.902;2023-04-25T05:00:06;20.03;;;7.27;;
17524;SDS011;40431;52.198;9.902;2023-04-25T05:02:35;19.87;;;8.73;;
17524;SDS011;40431;52.198;9.902;2023-04-25T05:05:04;16.30;;;6.00;;
17524;SDS011;40431;52.198;9.902;2023-04-25T05:07:31;13.77;;;6.13;;
17524;SDS011;40431;52.198;9.902;2023-04-25T05:09:57;22.50;;;6.30;;
17524;SDS011;40431;52.198;9.902;2023-04-25T05:12:23;16.20;;;5.90;;
17524;SDS011;40431;52.198;9.902;2023-04-25T05:14:50;18.57;;;6.27;;
17524;SDS011;40431;52.198;9.902;2023-04-25T05:17:16;11.67;;;6.03;;
17524;SDS011;40431;52.198;9.902;2023-04-25T05:19:42;16.87;;;6.37;;
17524;SDS011;40431;52.198;9.902;2023-04-25T05:22:11;20.17;;;6.53;;
17524;SDS011;40431;52.198;9.902;2023-04-25T05:24:37;16.07;;;5.60;;
17524;SDS011;40431;52.198;9.902;2023-04-25T05:27:04;11.63;;;6.07;;
17524;SDS011;40431;52.198;9.902;2023-04-25T05:29:31;15.47;;;6.30;;
17524;SDS011;40431;52.198;9.902;2023-04-25T05:31:57;13.13;;;6.07;;
17524;SDS011;40431;52.198;9.902;2023-04-25T05:34:24;16.63;;;5.80;;
17524;SDS011;40431;52.198;9.902;2023-04-25T05:36:50;12.33;;;5.80;;
17524;SDS011;40431;52.198;9.902;2023-04-25T05:39:18;13.90;;;6.37;;
17524;SDS011;40431;52.198;9.902;2023-04-25T05:41:45;12.33;;;5.23;;
17524;SDS011;40431;52.198;9.902;2023-04-25T05:44:11;10.03;;;4.67;;
17524;SDS011;40431;52.198;9.902;2023-04-25T05:46:37;29.97;;;6.97;;
17524;SDS011;40431;52.198;9.902;2023-04-25T05:49:04;18.37;;;5.33;;
17524;SDS011;40431;52.198;9.902;2023-04-25T05:51:30;18.90;;;6.63;;
17524;SDS011;40431;52.198;9.902;2023-04-25T05:53:56;14.77;;;5.63;;
17524;SDS011;40431;52.198;9.902;2023-04-25T05:56:24;13.73;;;5.80;;
17524;SDS011;40431;52.198;9.902;2023-04-25T05:58:51;12.60;;;5.00;;
17524;SDS011;40431;52.198;9.902;2023-04-25T06:01:17;15.00;;;4.83;;
17524;SDS011;40431;52.198;9.902;2023-04-25T06:03:44;14.53;;;5.23;;
17524;SDS011;40431;52.198;9.902;2023-04-25T06:06:10;17.23;;;5.50;;
17524;SDS011;40431;52.198;9.902;2023-04-25T06:08:37;16.10;;;5.53;;
17524;SDS011;40431;52.198;9.902;2023-04-25T06:11:03;8.43;;;4.70;;
17524;SDS011;40431;52.198;9.902;2023-04-25T06:13:32;19.23;;;5.90;;
17524;SDS011;40431;52.198;9.902;2023-04-25T06:15:58;15.53;;;5.37;;
17524;SDS011;40431;52.198;9.902;2023-04-25T06:18:25;21.70;;;5.23;;
17524;SDS011;40431;52.198;9.902;2023-04-25T06:20:51;14.43;;;5.70;;
17524;SDS011;40431;52.198;9.902;2023-04-25T06:23:17;14.30;;;5.07;;
17524;SDS011;40431;52.198;9.902;2023-04-25T06:25:44;15.40;;;4.77;;
17524;SDS011;40431;52.198;9.902;2023-04-25T06:28:10;20.23;;;5.90;;
17524;SDS011;40431;52.198;9.902;2023-04-25T06:30:38;13.07;;;4.80;;
17524;SDS011;40431;52.198;9.902;2023-04-25T06:33:04;15.93;;;4.80;;
17524;SDS011;40431;52.198;9.902;2023-04-25T06:35:31;12.77;;;3.80;;
17524;SDS011;40431;52.198;9.902;2023-04-25T06:37:57;8.80;;;4.40;;
17524;SDS011;40431;52.198;9.902;2023-04-25T06:40:23;14.97;;;5.00;;
17524;SDS011;40431;52.198;9.902;2023-04-25T06:42:50;10.93;;;4.50;;
17524;SDS011;40431;52.198;9.902;2023-04-25T06:45:16;15.50;;;4.73;;
17524;SDS011;40431;52.198;9.902;2023-04-25T06:47:44;11.40;;;4.60;;
17524;SDS011;40431;52.198;9.902;2023-04-25T06:50:10;11.10;;;4.37;;
17524;SDS011;40431;52.198;9.902;2023-04-25T06:52:37;10.57;;;3.90;;
17524;SDS011;40431;52.198;9.902;2023-04-25T06:55:04;24.43;;;5.70;;
17524;SDS011;40431;52.198;9.902;2023-04-25T06:57:31;9.13;;;3.83;;
17524;SDS011;40431;52.198;9.902;2023-04-25T06:59:57;16.30;;;5.20;;
17524;SDS011;40431;52.198;9.902;2023-04-25T07:02:24;9.20;;;5.07;;
17524;SDS011;40431;52.198;9.902;2023-04-25T07:04:52;11.73;;;3.87;;
17524;SDS011;40431;52.198;9.902;2023-04-25T07:07:18;13.90;;;4.10;;
17524;SDS011;40431;52.198;9.902;2023-04-25T07:09:45;8.97;;;3.97;;
17524;SDS011;40431;52.198;9.902;2023-04-25T07:12:11;5.87;;;3.10;;
17524;SDS011;40431;52.198;9.902;2023-04-25T07:14:37;7.40;;;3.03;;
17524;SDS011;40431;52.198;9.902;2023-04-25T07:17:04;4.73;;;2.93;;
17524;SDS011;40431;52.198;9.902;2023-04-25T07:19:31;11.13;;;3.57;;
17524;SDS011;40431;52.198;9.902;2023-04-25T07:21:59;10.97;;;4.00;;
17524;SDS011;40431;52.198;9.902;2023-04-25T07:24:25;7.60;;;3.33;;
17524;SDS011;40431;52.198;9.902;2023-04-25T07:26:52;13.83;;;4.47;;
17524;SDS011;40431;52.198;9.902;2023-04-25T07:29:18;5.63;;;3.50;;
17524;SDS011;40431;52.198;9.902;2023-04-25T07:31:44;10.10;;;3.30;;
17524;SDS011;40431;52.198;9.902;2023-04-25T07:34:11;11.10;;;3.13;;
17524;SDS011;40431;52.198;9.902;2023-04-25T07:36:37;9.90;;;3.50;;
17524;SDS011;40431;52.198;9.902;2023-04-25T07:39:05;11.77;;;3.83;;
17524;SDS011;40431;52.198;9.902;2023-04-25T07:41:34;9.80;;;3.27;;
17524;SDS011;40431;52.198;9.902;2023-04-25T07:44:00;9.50;;;3.87;;
17524;SDS011;40431;52.198;9.902;2023-04-25T07:46:26;5.60;;;3.00;;
17524;SDS011;40431;52.198;9.902;2023-04-25T07:48:53;9.63;;;3.90;;
17524;SDS011;40431;52.198;9.902;2023-04-25T07:51:19;6.20;;;3.53;;
17524;SDS011;40431;52.198;9.902;2023-04-25T07:53:47;6.67;;;3.97;;
17524;SDS011;40431;52.198;9.902;2023-04-25T07:56:15;7.23;;;3.90;;
17524;SDS011;40431;52.198;9.902;2023-04-25T07:58:41;9.60;;;3.90;;
17524;SDS011;40431;52.198;9.902;2023-04-25T08:01:07;8.60;;;4.27;;
17524;SDS011;40431;52.198;9.902;2023-04-25T08:03:34;8.67;;;3.83;;
17524;SDS011;40431;52.198;9.902;2023-04-25T08:06:00;8.10;;;3.77;;
17524;SDS011;40431;52.198;9.902;2023-04-25T08:08:27;10.10;;;3.80;;
17524;SDS011;40431;52.198;9.902;2023-04-25T08:10:53;7.87;;;4.20;;
17524;SDS011;40431;52.198;9.902;2023-04-25T08:13:21;6.73;;;3.17;;
17524;SDS011;40431;52.198;9.902;2023-04-25T08:15:47;6.63;;;2.87;;
17524;SDS011;40431;52.198;9.902;2023-04-25T08:18:13;14.83;;;3.90;;
17524;SDS011;40431;52.198;9.902;2023-04-25T08:20:40;8.67;;;3.43;;
17524;SDS011;40431;52.198;9.902;2023-04-25T08:23:06;7.20;;;3.77;;
17524;SDS011;40431;52.198;9.902;2023-04-25T08:25:33;6.70;;;3.43;;
17524;SDS011;40431;52.198;9.902;2023-04-25T08:27:59;8.20;;;3.20;;
17524;SDS011;40431;52.198;9.902;2023-04-25T08:30:29;8.47;;;3.20;;
17524;SDS011;40431;52.198;9.902;2023-04-25T08:32:56;8.83;;;3.57;;
17524;SDS011;40431;52.198;9.902;2023-04-25T08:35:22;7.50;;;3.37;;
17524;SDS011;40431;52.198;9.902;2023-04-25T08:37:49;9.23;;;3.57;;
17524;SDS011;40431;52.198;9.902;2023-04-25T08:40:16;7.97;;;3.73;;
17524;SDS011;40431;52.198;9.902;2023-04-25T08:42:42;9.33;;;3.27;;
17524;SDS011;40431;52.198;9.902;2023-04-25T08:45:09;7.30;;;3.50;;
17524;SDS011;40431;52.198;9.902;2023-04-25T08:47:38;4.57;;;2.70;;
17524;SDS011;40431;52.198;9.902;2023-04-25T08:50:06;6.03;;;3.80;;
17524;SDS011;40431;52.198;9.902;2023-04-25T08:52:35;5.73;;;2.83;;
17524;SDS011;40431;52.198;9.902;2023-04-25T08:55:03;5.43;;;3.00;;
17524;SDS011;40431;52.198;9.902;2023-04-25T08:57:33;6.33;;;2.67;;
17524;SDS011;40431;52.198;9.902;2023-04-25T09:00:00;5.77;;;2.77;;
17524;SDS011;40431;52.198;9.902;2023-04-25T09:02:28;6.07;;;2.60;;
17524;SDS011;40431;52.198;9.902;2023-04-25T09:04:56;4.07;;;2.23;;
17524;SDS011;40431;52.198;9.902;2023-04-25T09:07:23;4.97;;;2.20;;
17524;SDS011;40431;52.198;9.902;2023-04-25T09:09:50;6.87;;;2.80;;
17524;SDS011;40431;52.198;9.902;2023-04-25T09:12:17;4.87;;;2.37;;
17524;SDS011;40431;52.198;9.902;2023-04-25T09:14:46;3.97;;;2.73;;
17524;SDS011;40431;52.198;9.902;2023-04-25T09:17:27;7.10;;;3.07;;
17524;SDS011;40431;52.198;9.902;2023-04-25T09:19:54;5.83;;;2.80;;
17524;SDS011;40431;52.198;9.902;2023-04-25T09:22:22;7.07;;;3.30;;
17524;SDS011;40431;52.198;9.902;2023-04-25T09:24:49;4.77;;;2.70;;
17524;SDS011;40431;52.198;9.902;2023-04-25T09:27:17;5.03;;;2.70;;
17524;SDS011;40431;52.198;9.902;2023-04-25T09:29:44;4.07;;;2.50;;
17524;SDS011;40431;52.198;9.902;2023-04-25T09:32:12;5.63;;;2.43;;
17524;SDS011;40431;52.198;9.902;2023-04-25T09:34:40;3.50;;;2.50;;
17524;SDS011;40431;52.198;9.902;2023-04-25T09:37:08;8.33;;;3.30;;
17524;SDS011;40431;52.198;9.902;2023-04-25T09:39:37;7.43;;;3.13;;
17524;SDS011;40431;52.198;9.902;2023-04-25T09:42:04;4.27;;;2.47;;
17524;SDS011;40431;52.198;9.902;2023-04-25T09:44:31;5.13;;;3.13;;
17524;SDS011;40431;52.198;9.902;2023-04-25T09:46:58;6.07;;;2.60;;
17524;SDS011;40431;52.198;9.902;2023-04-25T09:49:24;4.03;;;2.20;;
17524;SDS011;40431;52.198;9.902;2023-04-25T09:51:54;4.00;;;2.20;;
17524;SDS011;40431;52.198;9.902;2023-04-25T09:54:25;4.20;;;2.40;;
17524;SDS011;40431;52.198;9.902;2023-04-25T09:56:53;8.50;;;2.80;;
17524;SDS011;40431;52.198;9.902;2023-04-25T09:59:20;4.10;;;2.30;;
17524;SDS011;40431;52.198;9.902;2023-04-25T10:01:47;5.07;;;2.63;;
17524;SDS011;40431;52.198;9.902;2023-04-25T10:04:16;3.70;;;2.30;;
17524;SDS011;40431;52.198;9.902;2023-04-25T10:06:47;4.63;;;2.23;;
17524;SDS011;40431;52.198;9.902;2023-04-25T10:09:15;3.67;;;2.10;;
17524;SDS011;40431;52.198;9.902;2023-04-25T10:11:42;2.97;;;2.20;;
17524;SDS011;40431;52.198;9.902;2023-04-25T10:14:12;6.17;;;1.73;;
17524;SDS011;40431;52.198;9.902;2023-04-25T10:16:39;6.67;;;2.30;;
17524;SDS011;40431;52.198;9.902;2023-04-25T10:19:07;4.23;;;2.10;;
17524;SDS011;40431;52.198;9.902;2023-04-25T10:21:34;7.73;;;2.60;;
17524;SDS011;40431;52.198;9.902;2023-04-25T10:24:04;4.50;;;2.47;;
17524;SDS011;40431;52.198;9.902;2023-04-25T10:26:31;4.10;;;1.90;;
17524;SDS011;40431;52.198;9.902;2023-04-25T10:28:59;6.23;;;2.40;;
17524;SDS011;40431;52.198;9.902;2023-04-25T10:31:27;5.13;;;2.47;;
17524;SDS011;40431;52.198;9.902;2023-04-25T10:33:56;5.43;;;2.83;;
17524;SDS011;40431;52.198;9.902;2023-04-25T10:36:25;6.17;;;2.67;;
17524;SDS011;40431;52.198;9.902;2023-04-25T10:38:54;6.10;;;2.60;;
17524;SDS011;40431;52.198;9.902;2023-04-25T10:41:20;4.50;;;2.33;;
17524;SDS011;40431;52.198;9.902;2023-04-25T10:43:48;3.13;;;2.60;;
17524;SDS011;40431;52.198;9.902;2023-04-25T10:46:19;3.50;;;2.13;;
17524;SDS011;40431;52.198;9.902;2023-04-25T10:48:50;3.17;;;2.37;;
17524;SDS011;40431;52.198;9.902;2023-04-25T10:51:19;3.47;;;2.10;;
17524;SDS011;40431;52.198;9.902;2023-04-25T10:53:46;6.53;;;2.90;;
17524;SDS011;40431;52.198;9.902;2023-04-25T10:56:22;6.93;;;2.90;;
17524;SDS011;40431;52.198;9.902;2023-04-25T10:58:51;8.13;;;2.67;;
17524;SDS011;40431;52.198;9.902;2023-04-25T11:01:19;4.93;;;2.50;;
17524;SDS011;40431;52.198;9.902;2023-04-25T11:03:46;5.10;;;3.10;;
17524;SDS011;40431;52.198;9.902;2023-04-25T11:06:20;8.37;;;3.00;;
17524;SDS011;40431;52.198;9.902;2023-04-25T11:08:49;4.17;;;2.87;;
17524;SDS011;40431;52.198;9.902;2023-04-25T11:11:17;4.03;;;2.00;;
17524;SDS011;40431;52.198;9.902;2023-04-25T11:13:46;4.73;;;2.47;;
17524;SDS011;40431;52.198;9.902;2023-04-25T11:16:14;3.67;;;2.63;;
17524;SDS011;40431;52.198;9.902;2023-04-25T11:18:40;4.53;;;2.47;;
17524;SDS011;40431;52.198;9.902;2023-04-25T11:21:07;7.83;;;2.90;;
17524;SDS011;40431;52.198;9.902;2023-04-25T11:23:35;3.77;;;2.77;;
17524;SDS011;40431;52.198;9.902;2023-04-25T11:26:02;4.67;;;2.43;;
17524;SDS011;40431;52.198;9.902;2023-04-25T11:28:28;6.43;;;2.70;;
17524;SDS011;40431;52.198;9.902;2023-04-25T11:30:56;5.43;;;2.67;;
17524;SDS011;40431;52.198;9.902;2023-04-25T11:33:23;6.93;;;2.50;;
17524;SDS011;40431;52.198;9.902;2023-04-25T11:35:49;4.33;;;2.53;;
17524;SDS011;40431;52.198;9.902;2023-04-25T11:38:16;5.67;;;2.57;;
17524;SDS011;40431;52.198;9.902;2023-04-25T11:40:44;5.90;;;2.23;;
17524;SDS011;40431;52.198;9.902;2023-04-25T11:43:15;3.30;;;2.60;;
17524;SDS011;40431;52.198;9.902;2023-04-25T11:45:45;3.73;;;2.30;;
17524;SDS011;40431;52.198;9.902;2023-04-25T11:48:12;4.73;;;2.30;;
17524;SDS011;40431;52.198;9.902;2023-04-25T11:50:38;6.10;;;2.97;;
17524;SDS011;40431;52.198;9.902;2023-04-25T11:53:05;4.43;;;2.70;;
17524;SDS011;40431;52.198;9.902;2023-04-25T11:55:32;4.50;;;2.37;;
17524;SDS011;40431;52.198;9.902;2023-04-25T11:58:00;4.17;;;2.73;;
17524;SDS011;40431;52.198;9.902;2023-04-25T12:00:27;6.70;;;2.63;;
17524;SDS011;40431;52.198;9.902;2023-04-25T12:02:54;5.60;;;2.97;;
17524;SDS011;40431;52.198;9.902;2023-04-25T12:05:23;3.57;;;2.57;;
17524;SDS011;40431;52.198;9.902;2023-04-25T12:07:51;6.83;;;3.07;;
17524;SDS011;40431;52.198;9.902;2023-04-25T12:10:18;5.67;;;2.37;;
17524;SDS011;40431;52.198;9.902;2023-04-25T12:12:46;5.23;;;2.37;;
17524;SDS011;40431;52.198;9.902;2023-04-25T12:15:16;4.70;;;2.73;;
17524;SDS011;40431;52.198;9.902;2023-04-25T12:17:45;6.67;;;2.43;;
17524;SDS011;40431;52.198;9.902;2023-04-25T12:20:13;5.90;;;2.67;;
17524;SDS011;40431;52.198;9.902;2023-04-25T12:22:40;4.87;;;2.83;;
17524;SDS011;40431;52.198;9.902;2023-04-25T12:25:09;6.83;;;2.27;;
17524;SDS011;40431;52.198;9.902;2023-04-25T12:27:36;5.23;;;3.00;;
17524;SDS011;40431;52.198;9.902;2023-04-25T12:30:03;4.03;;;2.33;;
17524;SDS011;40431;52.198;9.902;2023-04-25T12:32:31;4.73;;;2.57;;
17524;SDS011;40431;52.198;9.902;2023-04-25T12:34:57;3.73;;;2.70;;
17524;SDS011;40431;52.198;9.902;2023-04-25T12:37:24;5.07;;;2.70;;
17524;SDS011;40431;52.198;9.902;2023-04-25T12:39:50;2.93;;;2.17;;
17524;SDS011;40431;52.198;9.902;2023-04-25T12:42:16;6.67;;;3.00;;
17524;SDS011;40431;52.198;9.902;2023-04-25T12:44:43;5.27;;;2.63;;
17524;SDS011;40431;52.198;9.902;2023-04-25T12:47:09;4.20;;;2.10;;
17524;SDS011;40431;52.198;9.902;2023-04-25T12:49:37;3.83;;;2.63;;
17524;SDS011;40431;52.198;9.902;2023-04-25T12:52:03;4.03;;;2.40;;
17524;SDS011;40431;52.198;9.902;2023-04-25T12:54:30;4.03;;;2.60;;
17524;SDS011;40431;52.198;9.902;2023-04-25T12:56:56;3.60;;;1.83;;
17524;SDS011;40431;52.198;9.902;2023-04-25T12:59:23;2.67;;;1.90;;
17524;SDS011;40431;52.198;9.902;2023-04-25T13:01:49;4.00;;;1.70;;
17524;SDS011;40431;52.198;9.902;2023-04-25T13:04:16;5.80;;;1.70;;
17524;SDS011;40431;52.198;9.902;2023-04-25T13:06:43;2.77;;;1.70;;
17524;SDS011;40431;52.198;9.902;2023-04-25T13:09:10;1.90;;;1.40;;
17524;SDS011;40431;52.198;9.902;2023-04-25T13:11:37;2.23;;;1.40;;
17524;SDS011;40431;52.198;9.902;2023-04-25T13:14:04;2.30;;;1.63;;
17524;SDS011;40431;52.198;9.902;2023-04-25T13:16:30;3.33;;;1.57;;
17524;SDS011;40431;52.198;9.902;2023-04-25T13:18:57;2.77;;;1.87;;
17524;SDS011;40431;52.198;9.902;2023-04-25T13:21:24;4.07;;;1.80;;
17524;SDS011;40431;52.198;9.902;2023-04-25T13:23:51;3.07;;;1.97;;
17524;SDS011;40431;52.198;9.902;2023-04-25T13:26:18;4.03;;;1.83;;
17524;SDS011;40431;52.198;9.902;2023-04-25T13:28:44;3.73;;;1.70;;
17524;SDS011;40431;52.198;9.902;2023-04-25T13:31:11;3.40;;;1.83;;
17524;SDS011;40431;52.198;9.902;2023-04-25T13:33:37;2.07;;;1.87;;
17524;SDS011;40431;52.198;9.902;2023-04-25T13:36:03;2.50;;;1.70;;
17524;SDS011;40431;52.198;9.902;2023-04-25T13:38:30;2.80;;;1.83;;
17524;SDS011;40431;52.198;9.902;2023-04-25T13:40:58;3.53;;;1.50;;
17524;SDS011;40431;52.198;9.902;2023-04-25T13:43:24;3.10;;;1.70;;
17524;SDS011;40431;52.198;9.902;2023-04-25T13:45:53;4.43;;;1.93;;
17524;SDS011;40431;52.198;9.902;2023-04-25T13:48:20;2.50;;;2.13;;
17524;SDS011;40431;52.198;9.902;2023-04-25T13:50:47;1.73;;;1.63;;
17524;SDS011;40431;52.198;9.902;2023-04-25T13:53:13;1.97;;;1.77;;
17524;SDS011;40431;52.198;9.902;2023-04-25T13:55:40;3.67;;;1.90;;
17524;SDS011;40431;52.198;9.902;2023-04-25T13:58:08;2.60;;;1.60;;
17524;SDS011;40431;52.198;9.902;2023-04-25T14:00:35;1.93;;;1.63;;
17524;SDS011;40431;52.198;9.902;2023-04-25T14:03:03;4.93;;;1.93;;
17524;SDS011;40431;52.198;9.902;2023-04-25T14:05:32;4.60;;;1.63;;
17524;SDS011;40431;52.198;9.902;2023-04-25T14:08:02;4.80;;;2.33;;
17524;SDS011;40431;52.198;9.902;2023-04-25T14:10:30;2.17;;;1.70;;
17524;SDS011;40431;52.198;9.902;2023-04-25T14:12:56;2.53;;;2.00;;
17524;SDS011;40431;52.198;9.902;2023-04-25T14:15:24;6.60;;;1.93;;
17524;SDS011;40431;52.198;9.902;2023-04-25T14:17:50;2.90;;;1.63;;
17524;SDS011;40431;52.198;9.902;2023-04-25T14:20:17;3.13;;;2.03;;
17524;SDS011;40431;52.198;9.902;2023-04-25T14:22:45;4.03;;;2.23;;
17524;SDS011;40431;52.198;9.902;2023-04-25T14:25:11;4.97;;;2.43;;
17524;SDS011;40431;52.198;9.902;2023-04-25T14:27:38;4.80;;;2.23;;
17524;SDS011;40431;52.198;9.902;2023-04-25T14:30:04;3.83;;;2.10;;
17524;SDS011;40431;52.198;9.902;2023-04-25T14:32:35;2.83;;;2.20;;
17524;SDS011;40431;52.198;9.902;2023-04-25T14:35:01;5.03;;;2.20;;
17524;SDS011;40431;52.198;9.902;2023-04-25T14:37:28;2.53;;;2.20;;
17524;SDS011;40431;52.198;9.902;2023-04-25T14:39:54;2.40;;;2.17;;
17524;SDS011;40431;52.198;9.902;2023-04-25T14:42:20;2.07;;;1.80;;